Portada
METAR-TAF:

METAR-TAF

Aeropuertos :

Aeropuerto de Gran Canaria

Gran Canaria, España

latitud: 27-56N, longitud: 015-23W, altitud: 23 m

Observación

El informe se hizo hace 29 minutos, a las 10:30 UTC
Viento 19 kt del norte, variando entre norte-noroeste y norte-noreste
Temperatura 20°C
Humedad 56%
Presión 1020 hPa
Visibilidad 10 km o más
Escasas nubes a una altura de 3000 ft
Nubes dispersas a una altura de 4000 ft

METAR: GCLP 191030Z 01019KT 330V030 9999 FEW030 SCT040 20/11 Q1020 NOSIG

Hora: 11:59 (10:59 UTC)

Pronóstico

El informe se hizo hace 2 horas y 59 minutos, a las 08:00 UTC
Pronóstico válido del 19 a las 09 UTC al 20 a las 09 UTC
Viento 22 kt del norte
Visibilidad 10 km o más
Nubes dispersas a una altura de 3000 ft
Probabilidad 40% :
Temporalmente
del 19 a las 09 UTC al 19 a las 20 UTC
Viento 23 kt del norte con ráfagas de 33 kt

TAF: GCLP 190800Z 1909/2009 01022KT 9999 SCT030 TX22/1914Z TN17/2006Z PROB40 TEMPO 1909/1920 01023G33KT

Observaciones y pronósticos meteorológicos de más de 4000 aeropuertos (mensajes METAR y TAF).

Los puntos amarillos y rojos representan las estaciones disponibles.

Ponga el ratón en el punto deseado para ver el nombre de la estación.

Haga clic para ver las observaciones y los pronósticos meteorológicos.

Para cambiar el mapa : haga clic en los botones verdes con una cruz de color negro para hacer un zoom, en el botón verde con un guión para alejar o en las flechas verdes para mapas adyacentes.


METAR-TAF: